Time;durP1;ratioP1;P1;durP2;ratioP2;P2;SDS_P1;SDS_P2;PMS_P1;PMS_P2;Temp;Humidity;BMP_temperature;BMP_pressure;BME280_temperature;BME280_humidity;BME280_pressure;Samples;Min_cycle;Max_cycle;Signal;HPM_P1;HPM_P2
2022/05/31 15:28:38;;;;;;;1.42;0.90;;;22.40;36.90;;;;;;6240336;22;1612911;-89
2022/05/31 15:31:08;;;;;;;1.75;0.50;;;22.50;37.00;;;;;;6151743;23;20098;-88
2022/05/31 15:33:34;;;;;;;5.18;1.33;;;22.50;37.10;;;;;;6150574;23;20035;-87
2022/05/31 15:36:00;;;;;;;1.10;0.50;;;22.50;37.10;;;;;;6162646;23;20005;-88
2022/05/31 15:38:30;;;;;;;1.90;0.70;;;22.50;37.20;;;;;;6177150;23;20017;-89
2022/05/31 15:40:59;;;;;;;0.82;0.52;;;22.50;37.10;;;;;;6174139;23;20013;-88
2022/05/31 15:46:10;;;;;;;3.15;1.02;;;22.40;37.90;;;;;;6171751;23;20078;-90
2022/05/31 15:48:36;;;;;;;3.20;0.88;;;22.50;38.10;;;;;;6173071;23;20353;-90
2022/05/31 15:51:02;;;;;;;1.35;0.50;;;22.40;38.30;;;;;;6146797;23;20036;-90
2022/05/31 15:53:30;;;;;;;1.35;0.65;;;22.40;38.60;;;;;;6172728;23;20040;-90
2022/05/31 15:55:56;;;;;;;2.58;1.10;;;22.40;38.70;;;;;;6146072;23;20005;-89
2022/05/31 15:58:21;;;;;;;2.78;0.50;;;22.40;38.80;;;;;;6172026;23;20009;-89
2022/05/31 16:00:48;;;;;;;3.72;2.17;;;22.40;39.10;;;;;;6175355;23;20005;-89
2022/05/31 16:03:14;;;;;;;2.25;0.80;;;22.40;39.10;;;;;;6152254;23;20020;-89
2022/05/31 16:05:40;;;;;;;2.08;0.63;;;22.40;39.40;;;;;;6140604;23;20029;-90
2022/05/31 16:08:06;;;;;;;2.67;0.80;;;22.40;39.50;;;;;;6117012;23;20357;-89
2022/05/31 16:10:32;;;;;;;2.22;0.70;;;22.40;39.30;;;;;;6114871;23;20096;-90
2022/05/31 16:12:59;;;;;;;1.95;0.68;;;22.40;39.10;;;;;;6113685;23;20013;-89
2022/05/31 16:15:25;;;;;;;0.90;0.43;;;22.40;39.20;;;;;;6117988;23;20002;-88
2022/05/31 16:17:50;;;;;;;3.05;0.50;;;22.40;39.20;;;;;;6119176;23;20389;-89
2022/05/31 16:20:17;;;;;;;2.55;0.98;;;22.40;39.20;;;;;;6141565;23;20029;-90
2022/05/31 16:22:52;;;;;;;1.20;0.52;;;22.40;39.20;;;;;;6117163;23;20005;-90
2022/05/31 16:25:23;;;;;;;1.60;0.60;;;22.40;39.10;;;;;;6118417;23;20020;-90
2022/05/31 16:27:52;;;;;;;1.58;0.70;;;22.50;39.20;;;;;;6142218;23;20013;-89
2022/05/31 16:30:20;;;;;;;3.60;0.88;;;22.50;39.30;;;;;;6109463;23;20021;-90
2022/05/31 16:32:46;;;;;;;0.82;0.50;;;22.50;39.30;;;;;;6118561;23;20084;-90
2022/05/31 16:35:14;;;;;;;0.82;0.57;;;22.50;39.40;;;;;;6119565;23;20465;-89
2022/05/31 16:43:16;;;;;;;1.10;0.55;;;22.50;39.50;;;;;;6124431;23;20484;-89
2022/05/31 16:45:42;;;;;;;3.80;0.68;;;22.50;39.50;;;;;;6118181;23;20017;-90
2022/05/31 16:48:08;;;;;;;2.10;0.82;;;22.50;39.60;;;;;;6095201;23;20015;-89
2022/05/31 16:50:34;;;;;;;1.67;0.60;;;22.50;39.50;;;;;;6118654;23;20441;-90
2022/05/31 16:53:01;;;;;;;0.70;0.40;;;22.50;39.60;;;;;;6094348;23;20012;-89
2022/05/31 16:55:27;;;;;;;1.58;0.60;;;22.50;39.50;;;;;;6094921;23;19997;-90
2022/05/31 16:57:53;;;;;;;1.73;0.73;;;22.40;39.60;;;;;;6143690;23;20001;-88
2022/05/31 17:00:20;;;;;;;2.25;0.60;;;22.50;39.70;;;;;;6094080;23;20028;-90
2022/05/31 17:02:47;;;;;;;4.00;0.57;;;22.40;39.70;;;;;;6119130;23;20006;-89
2022/05/31 17:05:13;;;;;;;2.58;0.60;;;22.50;39.90;;;;;;6119599;23;20048;-90
2022/05/31 17:15:54;;;;;;;0.98;0.65;;;22.40;40.60;;;;;;6122917;23;20048;-89
2022/05/31 17:18:19;;;;;;;2.67;1.02;;;22.40;40.70;;;;;;6117616;23;20088;-90
2022/05/31 17:20:50;;;;;;;0.98;0.60;;;22.40;40.80;;;;;;6118177;23;20013;-89
2022/05/31 17:23:26;;;;;;;2.72;0.88;;;22.40;40.90;;;;;;6119605;23;20033;-90
2022/05/31 17:25:56;;;;;;;3.72;0.80;;;22.40;40.90;;;;;;6096068;23;20092;-88
2022/05/31 17:28:22;;;;;;;3.55;0.93;;;22.40;40.90;;;;;;6124413;23;20169;-88
2022/05/31 17:30:50;;;;;;;1.20;0.70;;;22.30;41.10;;;;;;6150407;23;20063;-90
2022/05/31 17:33:21;;;;;;;1.88;0.77;;;22.40;41.20;;;;;;6149694;23;20004;-90
2022/05/31 17:35:54;;;;;;;1.20;0.60;;;22.30;41.30;;;;;;6150599;23;19997;-89
2022/05/31 17:38:26;;;;;;;2.08;0.60;;;22.30;41.30;;;;;;6148625;23;20096;-90
2022/05/31 17:40:52;;;;;;;1.55;0.50;;;22.30;41.30;;;;;;6148661;23;20013;-88
2022/05/31 17:43:18;;;;;;;1.58;0.70;;;22.30;41.40;;;;;;6172569;23;20358;-88
2022/05/31 17:45:43;;;;;;;0.93;0.60;;;22.40;41.40;;;;;;6148455;23;20275;-90
2022/05/31 17:48:09;;;;;;;1.15;0.63;;;22.40;41.30;;;;;;6171952;23;20366;-90
2022/05/31 17:50:35;;;;;;;1.08;0.50;;;22.40;41.40;;;;;;6147982;23;20079;-90
2022/05/31 17:53:04;;;;;;;3.30;0.80;;;22.40;41.30;;;;;;6150570;23;20441;-89
2022/05/31 17:55:30;;;;;;;1.85;0.90;;;22.30;41.20;;;;;;6124257;23;20448;-88
2022/05/31 17:57:56;;;;;;;2.22;0.85;;;22.30;41.30;;;;;;6149928;23;20008;-89
2022/05/31 18:00:21;;;;;;;3.92;0.75;;;22.30;41.30;;;;;;6148813;23;20075;-89
2022/05/31 18:02:47;;;;;;;3.10;0.73;;;22.30;41.30;;;;;;6124888;23;20063;-90
2022/05/31 18:05:13;;;;;;;1.48;0.60;;;22.30;41.40;;;;;;6147738;23;20017;-89
2022/05/31 18:07:39;;;;;;;2.58;0.90;;;22.30;41.30;;;;;;6173475;23;20383;-89
2022/05/31 18:10:05;;;;;;;2.75;0.73;;;22.30;41.20;;;;;;6148926;23;20088;-89
2022/05/31 18:12:32;;;;;;;2.08;1.10;;;22.30;41.20;;;;;;6147792;23;20167;-89
2022/05/31 18:14:57;;;;;;;2.72;0.68;;;22.30;41.30;;;;;;6162353;23;20013;-88
2022/05/31 18:17:23;;;;;;;5.03;1.30;;;22.40;41.30;;;;;;6164347;23;20471;-88
2022/05/31 18:19:49;;;;;;;2.35;0.90;;;22.40;41.30;;;;;;6134248;23;20024;-87
2022/05/31 18:22:18;;;;;;;2.47;0.60;;;22.30;41.20;;;;;;6174042;23;20005;-89
2022/05/31 18:24:46;;;;;;;2.10;0.70;;;22.30;41.20;;;;;;6149572;23;20276;-90
2022/05/31 18:27:13;;;;;;;4.50;0.95;;;22.30;41.30;;;;;;6147828;23;20105;-90
2022/05/31 18:29:49;;;;;;;2.00;0.73;;;22.30;41.50;;;;;;6147949;23;20084;-89
2022/05/31 18:32:22;;;;;;;1.92;0.80;;;22.30;41.60;;;;;;6119310;23;20040;-89
2022/05/31 18:34:52;;;;;;;1.05;0.55;;;22.30;41.60;;;;;;6120198;23;20358;-88
2022/05/31 18:38:11;;;;;;;1.40;0.75;;;22.30;41.70;;;;;;6120674;23;20009;-88
2022/05/31 18:40:34;;;;;;;2.28;0.60;;;22.30;41.70;;;;;;6123959;23;20016;-89
2022/05/31 18:43:03;;;;;;;3.00;0.70;;;22.30;41.70;;;;;;6123464;23;20006;-89
2022/05/31 18:45:29;;;;;;;0.63;0.40;;;22.30;41.70;;;;;;6117646;23;20021;-89
2022/05/31 18:47:55;;;;;;;2.13;1.15;;;22.30;41.70;;;;;;6119573;23;20005;-88
2022/05/31 18:50:20;;;;;;;4.05;0.60;;;22.20;41.80;;;;;;6118378;23;20044;-89
2022/05/31 18:52:46;;;;;;;3.67;0.70;;;22.20;41.90;;;;;;6120600;23;20017;-88
2022/05/31 18:55:13;;;;;;;4.07;0.85;;;22.20;42.70;;;;;;6118233;23;20393;-89
2022/05/31 18:57:49;;;;;;;1.30;0.60;;;22.10;42.10;;;;;;6118553;23;20027;-89
2022/05/31 19:00:16;;;;;;;3.28;0.98;;;22.10;42.30;;;;;;6144281;23;20583;-89
2022/05/31 19:02:42;;;;;;;2.28;0.82;;;22.10;42.40;;;;;;6118686;23;20346;-89
2022/05/31 19:05:22;;;;;;;2.10;0.70;;;22.10;42.50;;;;;;6117282;23;20018;-89
2022/05/31 19:07:48;;;;;;;1.98;0.60;;;22.00;42.60;;;;;;6120469;23;20044;-88
2022/05/31 19:10:17;;;;;;;3.42;0.70;;;22.00;42.70;;;;;;6119704;23;20017;-89
2022/05/31 19:12:48;;;;;;;1.40;0.52;;;22.00;42.80;;;;;;6118574;23;20092;-89
2022/05/31 19:15:19;;;;;;;3.67;0.90;;;22.00;42.80;;;;;;6117811;23;20085;-88
2022/05/31 19:17:49;;;;;;;2.05;0.75;;;22.00;42.90;;;;;;6120351;23;20012;-88
2022/05/31 19:20:16;;;;;;;4.15;0.68;;;22.00;42.90;;;;;;6120545;23;20505;-89
2022/05/31 19:22:43;;;;;;;2.75;0.85;;;22.00;42.90;;;;;;6121019;23;20013;-89
2022/05/31 19:25:11;;;;;;;1.38;0.68;;;22.00;42.90;;;;;;6117661;23;20382;-89
2022/05/31 19:27:37;;;;;;;4.25;1.02;;;21.90;42.90;;;;;;6091825;23;20096;-89
2022/05/31 19:30:04;;;;;;;2.65;0.80;;;21.90;42.90;;;;;;6118359;23;20457;-89
2022/05/31 19:32:30;;;;;;;2.58;0.80;;;21.90;42.90;;;;;;6118487;23;20009;-89
2022/05/31 19:34:57;;;;;;;1.33;0.65;;;21.90;43.00;;;;;;6142230;23;20009;-89
2022/05/31 19:37:33;;;;;;;0.70;0.43;;;21.80;43.00;;;;;;6119537;23;20029;-89
2022/05/31 19:40:00;;;;;;;1.92;0.52;;;21.80;43.00;;;;;;6117699;23;20345;-89
2022/05/31 19:42:28;;;;;;;1.85;0.45;;;21.80;43.60;;;;;;6117954;23;20009;-90
2022/05/31 19:44:54;;;;;;;1.55;0.65;;;21.70;43.00;;;;;;6117268;23;20014;-90
2022/05/31 19:47:19;;;;;;;1.60;0.63;;;21.80;43.40;;;;;;6119529;23;20017;-89
2022/05/31 19:49:45;;;;;;;1.38;0.70;;;21.70;43.20;;;;;;6120916;23;20013;-89
2022/05/31 19:52:11;;;;;;;2.50;0.63;;;21.70;43.30;;;;;;6119217;23;20010;-87
2022/05/31 19:54:37;;;;;;;0.90;0.50;;;21.70;43.40;;;;;;6117555;23;20018;-89
2022/05/31 19:57:03;;;;;;;1.65;0.52;;;21.60;43.40;;;;;;6118687;23;20012;-89
2022/05/31 19:59:29;;;;;;;2.88;0.80;;;21.60;43.50;;;;;;6118375;23;20037;-89
2022/05/31 20:01:55;;;;;;;1.15;0.60;;;21.60;43.70;;;;;;6118956;23;20350;-89
2022/05/31 20:04:21;;;;;;;1.55;0.60;;;21.50;43.70;;;;;;6141842;23;20068;-89
2022/05/31 20:06:48;;;;;;;1.90;0.63;;;21.50;43.80;;;;;;6143745;23;20460;-88
2022/05/31 20:11:59;;;;;;;1.23;0.70;;;21.40;43.80;;;;;;6144518;23;20016;-89
2022/05/31 20:14:25;;;;;;;1.23;0.70;;;21.30;43.80;;;;;;6120703;23;20013;-88
2022/05/31 20:16:52;;;;;;;1.52;0.77;;;21.30;43.90;;;;;;6121070;23;20284;-88
2022/05/31 20:19:31;;;;;;;1.02;0.57;;;21.30;44.00;;;;;;6144399;23;20009;-87
2022/05/31 20:21:57;;;;;;;2.95;0.90;;;21.20;44.00;;;;;;6131718;23;20013;-90
2022/05/31 20:24:25;;;;;;;1.67;0.63;;;21.20;44.00;;;;;;6125439;23;20038;-89
2022/05/31 20:26:50;;;;;;;3.03;0.82;;;21.20;44.10;;;;;;6125440;23;20434;-89
2022/05/31 20:29:18;;;;;;;1.58;0.60;;;21.10;44.20;;;;;;6120249;23;20028;-88
2022/05/31 20:31:44;;;;;;;1.25;0.70;;;21.10;44.30;;;;;;6119974;23;20006;-89
2022/05/31 20:34:12;;;;;;;1.08;0.50;;;21.00;44.30;;;;;;6120127;23;20018;-88
2022/05/31 20:36:40;;;;;;;2.35;0.77;;;21.00;44.50;;;;;;6096521;23;20032;-90
2022/05/31 20:39:07;;;;;;;2.80;1.30;;;21.00;44.60;;;;;;6117273;23;20870;-89
2022/05/31 20:41:38;;;;;;;2.95;1.02;;;20.90;44.60;;;;;;6095972;23;20035;-89
2022/05/31 20:44:04;;;;;;;1.95;0.90;;;20.80;44.70;;;;;;6119784;23;20533;-88
2022/05/31 20:46:33;;;;;;;2.55;1.33;;;20.80;44.90;;;;;;6093205;23;20096;-88
2022/05/31 20:48:59;;;;;;;2.85;0.95;;;20.70;44.90;;;;;;6118602;23;20025;-89
2022/05/31 20:51:28;;;;;;;1.75;0.80;;;20.70;45.10;;;;;;6143948;23;20014;-88
2022/05/31 20:53:54;;;;;;;2.92;0.98;;;20.70;45.10;;;;;;6119459;23;20037;-89
2022/05/31 20:56:20;;;;;;;4.43;0.90;;;20.60;45.20;;;;;;6121488;23;20009;-89
2022/05/31 20:58:45;;;;;;;1.80;0.70;;;20.60;45.30;;;;;;6094600;23;20060;-89
2022/05/31 21:01:12;;;;;;;0.82;0.60;;;20.50;45.30;;;;;;6092694;23;20072;-89
2022/05/31 21:03:38;;;;;;;1.67;0.77;;;20.50;45.40;;;;;;6096359;23;20014;-89
2022/05/31 21:06:04;;;;;;;1.02;0.47;;;20.50;45.50;;;;;;6142592;23;20401;-90
2022/05/31 21:08:30;;;;;;;2.00;0.75;;;20.40;45.50;;;;;;6119839;23;20013;-89
2022/05/31 21:10:56;;;;;;;0.95;0.50;;;20.40;45.60;;;;;;6119421;23;20021;-89
2022/05/31 21:13:24;;;;;;;1.48;0.75;;;20.40;45.70;;;;;;6119063;23;20001;-88
2022/05/31 21:15:55;;;;;;;1.73;0.93;;;20.30;45.70;;;;;;6144149;23;20014;-89
2022/05/31 21:18:23;;;;;;;2.55;0.70;;;20.30;45.80;;;;;;6118113;23;20009;-88
2022/05/31 21:21:02;;;;;;;0.57;0.45;;;20.30;45.80;;;;;;6116916;23;20084;-89
2022/05/31 21:23:30;;;;;;;1.75;0.70;;;20.20;46.00;;;;;;6121522;23;20005;-89
2022/05/31 21:25:56;;;;;;;1.92;0.57;;;20.20;46.00;;;;;;6119891;23;20454;-89
2022/05/31 21:28:22;;;;;;;1.48;0.85;;;20.10;46.10;;;;;;6119090;23;20347;-89
2022/05/31 21:30:50;;;;;;;2.30;0.85;;;20.10;46.30;;;;;;6121231;23;20146;-89
2022/05/31 21:33:16;;;;;;;1.33;0.65;;;20.10;46.50;;;;;;6121094;23;20029;-89
2022/05/31 21:35:43;;;;;;;2.55;0.60;;;20.00;46.50;;;;;;6094704;23;20632;-89
2022/05/31 21:38:13;;;;;;;6.03;1.02;;;20.00;46.60;;;;;;6120512;23;20377;-89
2022/05/31 21:43:24;;;;;;;1.13;0.63;;;19.90;46.70;;;;;;6145243;23;20024;-89
2022/05/31 21:45:50;;;;;;;1.42;0.80;;;19.90;46.70;;;;;;6120147;23;20014;-88
2022/05/31 21:48:16;;;;;;;1.92;0.65;;;19.80;46.80;;;;;;6120347;23;20024;-89
2022/05/31 21:50:59;;;;;;;1.02;0.60;;;19.70;46.80;;;;;;6117508;23;20063;-89
2022/05/31 21:53:38;;;;;;;2.65;0.73;;;19.70;47.10;;;;;;6140664;23;20026;-88
2022/05/31 21:56:08;;;;;;;2.03;0.70;;;19.70;47.20;;;;;;6117750;23;20052;-88
2022/05/31 21:58:34;;;;;;;1.50;0.65;;;19.60;47.20;;;;;;6119237;23;20052;-89
2022/05/31 22:01:16;;;;;;;1.25;0.80;;;19.70;47.30;;;;;;6093502;23;20018;-89
2022/05/31 22:03:45;;;;;;;2.08;0.80;;;19.70;47.40;;;;;;6096415;23;20033;-89
2022/05/31 22:06:15;;;;;;;2.78;1.02;;;19.60;47.30;;;;;;6120088;23;20025;-90
2022/05/31 22:08:41;;;;;;;2.17;0.90;;;19.60;47.30;;;;;;6119008;23;20557;-89
2022/05/31 22:11:09;;;;;;;1.65;0.70;;;19.60;47.40;;;;;;6141185;23;20165;-89
2022/05/31 22:13:35;;;;;;;1.63;0.65;;;19.50;47.50;;;;;;6119723;23;20032;-89
2022/05/31 22:16:01;;;;;;;2.55;0.80;;;19.50;47.50;;;;;;6117891;23;20048;-89
2022/05/31 22:18:28;;;;;;;1.70;0.77;;;19.40;47.60;;;;;;6144638;23;20063;-89
2022/05/31 22:20:54;;;;;;;1.45;0.70;;;19.40;47.60;;;;;;6142387;23;20539;-89
2022/05/31 22:23:27;;;;;;;0.90;0.70;;;19.30;47.70;;;;;;6117415;23;20072;-88
2022/05/31 22:25:55;;;;;;;1.75;0.80;;;19.30;47.80;;;;;;6117592;23;20262;-89
2022/05/31 22:28:21;;;;;;;1.02;0.70;;;19.30;47.80;;;;;;6123525;23;20013;-89
2022/05/31 22:30:47;;;;;;;1.38;0.75;;;19.20;47.80;;;;;;6147584;23;20020;-89
2022/05/31 22:33:15;;;;;;;2.75;0.70;;;19.20;47.90;;;;;;6147098;23;20027;-89
2022/05/31 22:35:45;;;;;;;1.23;0.65;;;19.20;47.90;;;;;;6148605;23;20009;-89
2022/05/31 22:38:27;;;;;;;1.48;0.80;;;19.10;48.00;;;;;;6148926;23;20251;-89
2022/05/31 22:40:53;;;;;;;2.92;0.85;;;19.10;48.10;;;;;;6149774;23;20417;-89
2022/05/31 22:43:19;;;;;;;1.98;0.60;;;19.10;48.10;;;;;;6149249;23;20470;-88
2022/05/31 22:45:49;;;;;;;2.53;0.70;;;19.00;48.10;;;;;;6125135;23;20739;-89
2022/05/31 22:48:15;;;;;;;2.35;0.85;;;19.00;48.20;;;;;;6150697;23;20013;-89
2022/05/31 22:50:42;;;;;;;1.25;0.82;;;19.00;48.20;;;;;;6122055;23;20037;-89
2022/05/31 22:53:08;;;;;;;1.92;0.88;;;18.90;48.20;;;;;;6149115;23;20001;-88
2022/05/31 22:55:33;;;;;;;1.10;0.73;;;18.90;48.30;;;;;;6171720;23;20013;-89
2022/05/31 22:58:02;;;;;;;1.27;0.70;;;18.80;48.40;;;;;;6147242;23;20005;-89
2022/05/31 23:00:35;;;;;;;1.05;0.70;;;18.80;48.40;;;;;;6171687;23;20013;-88
2022/05/31 23:03:05;;;;;;;2.78;1.33;;;18.80;48.40;;;;;;6172511;23;20016;-89
2022/05/31 23:05:31;;;;;;;1.23;0.60;;;18.80;48.40;;;;;;6147589;23;20067;-89
2022/05/31 23:07:58;;;;;;;2.00;1.02;;;18.70;48.30;;;;;;6147029;23;20013;-89
2022/05/31 23:10:24;;;;;;;0.95;0.68;;;18.70;48.40;;;;;;6146512;23;20020;-89
2022/05/31 23:12:50;;;;;;;2.13;0.80;;;18.60;48.40;;;;;;6146169;23;20032;-89
2022/05/31 23:15:16;;;;;;;1.95;0.82;;;18.70;48.50;;;;;;6147482;23;20453;-88
2022/05/31 23:17:46;;;;;;;1.35;0.75;;;18.70;48.50;;;;;;6150897;23;20008;-89
2022/05/31 23:20:17;;;;;;;0.52;0.45;;;18.60;48.60;;;;;;6148575;23;20318;-89
2022/05/31 23:25:28;;;;;;;2.25;1.00;;;18.70;48.70;;;;;;6171074;23;20023;-89
2022/05/31 23:27:56;;;;;;;2.45;1.10;;;18.60;48.60;;;;;;6146792;23;20076;-89
2022/05/31 23:33:09;;;;;;;1.15;0.63;;;18.50;48.50;;;;;;6159783;23;20015;-88
2022/05/31 23:35:35;;;;;;;4.78;0.90;;;18.40;48.50;;;;;;6127449;23;20103;-89
2022/05/31 23:38:01;;;;;;;1.60;0.90;;;18.40;48.60;;;;;;6128617;23;20004;-89
2022/05/31 23:40:27;;;;;;;1.85;0.90;;;18.30;48.60;;;;;;6125917;23;20108;-88
2022/05/31 23:42:53;;;;;;;1.05;0.70;;;18.30;48.80;;;;;;6153514;23;20004;-89
2022/05/31 23:45:18;;;;;;;0.85;0.60;;;18.20;48.80;;;;;;6151943;23;20016;-89
2022/05/31 23:47:44;;;;;;;1.05;0.57;;;18.20;48.90;;;;;;6128268;23;20087;-87
2022/05/31 23:50:10;;;;;;;1.10;0.70;;;18.20;48.90;;;;;;6152160;23;20021;-89
2022/05/31 23:52:36;;;;;;;2.45;0.88;;;18.10;48.80;;;;;;6126335;23;20008;-89
2022/05/31 23:55:02;;;;;;;1.67;0.68;;;18.10;48.90;;;;;;6127622;23;20071;-89
2022/05/31 23:57:27;;;;;;;3.35;0.70;;;18.00;48.90;;;;;;6150143;23;20008;-89
2022/05/31 23:59:53;;;;;;;1.13;0.85;;;17.90;48.90;;;;;;6127701;23;20015;-89
